Time;durP1;ratioP1;P1;durP2;ratioP2;P2;SDS_P1;SDS_P2;PMS_P1;PMS_P2;Temp;Humidity;BMP_temperature;BMP_pressure;BME280_temperature;BME280_humidity;BME280_pressure;Samples;Min_cycle;Max_cycle;Signal;HPM_P1;HPM_P2
2021/06/09 00:02:02;;;;;;;1.37;1.27;;;;;;;19.24;74.65;99334.19;5069249;28;40004;-80
2021/06/09 00:04:30;;;;;;;0.90;0.90;;;;;;;19.23;74.51;99337.88;5086517;28;40908;-80
2021/06/09 00:06:57;;;;;;;1.00;1.00;;;;;;;19.23;74.66;99330.66;5069248;28;41867;-81
2021/06/09 00:09:25;;;;;;;1.33;1.27;;;;;;;19.13;74.42;99315.53;5086040;28;41572;-77
2021/06/09 00:11:52;;;;;;;0.93;0.90;;;;;;;19.23;74.44;99332.50;5069542;28;39588;-80
2021/06/09 00:14:21;;;;;;;1.03;1.03;;;;;;;19.23;74.34;99329.81;5052455;28;41193;-79
2021/06/09 00:16:48;;;;;;;1.27;1.17;;;;;;;19.22;74.79;99337.00;5071109;28;42870;-80
2021/06/09 00:19:16;;;;;;;1.80;1.70;;;;;;;19.16;75.10;99326.00;5051619;28;40810;-81
2021/06/09 00:21:47;;;;;;;4.13;1.93;;;;;;;19.12;74.88;99322.72;5070444;28;41071;-82
2021/06/09 00:24:15;;;;;;;1.80;1.63;;;;;;;19.12;75.13;99319.19;5069382;28;42207;-80
2021/06/09 00:26:43;;;;;;;1.77;1.50;;;;;;;19.22;74.87;99328.94;5071644;28;42733;-80
2021/06/09 00:29:10;;;;;;;1.83;1.73;;;;;;;19.22;74.88;99326.25;5085090;28;41738;-82
2021/06/09 00:31:39;;;;;;;1.73;1.63;;;;;;;19.20;75.17;99327.38;5069787;28;40040;-81
2021/06/09 00:34:06;;;;;;;1.20;1.10;;;;;;;19.23;74.82;99329.81;5065340;28;42544;-84
2021/06/09 00:36:34;;;;;;;1.37;1.30;;;;;;;19.17;74.93;99317.78;5032910;28;41824;-81
2021/06/09 00:39:01;;;;;;;1.00;1.00;;;;;;;19.24;74.73;99331.50;5050424;28;43050;-82
2021/06/09 00:41:28;;;;;;;1.03;1.00;;;;;;;19.24;74.70;99331.50;5032580;28;39251;-79
2021/06/09 00:43:56;;;;;;;1.27;1.17;;;;;;;19.23;74.39;99329.81;5064010;28;41702;-78
2021/06/09 00:46:32;;;;;;;1.37;1.27;;;;;;;19.22;74.57;99326.25;5052636;28;42277;-80
2021/06/09 00:49:01;;;;;;;1.73;1.63;;;;;;;19.20;74.36;99319.34;5052411;28;41706;-82
2021/06/09 00:51:28;;;;;;;1.00;1.00;;;;;;;19.20;74.60;99327.38;5071402;28;39676;-79
2021/06/09 00:53:57;;;;;;;1.70;1.60;;;;;;;19.12;74.57;99320.03;5051966;28;41736;-81
2021/06/09 00:56:26;;;;;;;1.30;1.27;;;;;;;19.15;75.07;99324.28;5069304;28;42939;-80
2021/06/09 00:58:54;;;;;;;2.00;1.80;;;;;;;19.13;75.10;99320.88;5051901;28;44242;-78
2021/06/09 01:01:24;;;;;;;1.33;1.03;;;;;;;19.08;75.02;99318.59;5068859;28;39015;-78
2021/06/09 01:03:52;;;;;;;1.97;1.87;;;;;;;19.12;74.94;99319.19;5084992;28;41268;-81
2021/06/09 01:06:21;;;;;;;1.67;1.40;;;;;;;19.13;75.17;99323.56;5065526;28;42590;-81
2021/06/09 01:08:51;;;;;;;1.90;1.70;;;;;;;19.12;75.00;99324.56;5050127;28;42355;-77
2021/06/09 01:11:20;;;;;;;1.53;1.20;;;;;;;19.07;75.07;99318.75;5048304;28;41291;-78
2021/06/09 01:13:48;;;;;;;1.60;1.50;;;;;;;19.08;75.15;99317.75;5057738;28;41635;-79
2021/06/09 01:16:16;;;;;;;1.77;1.57;;;;;;;19.12;74.84;99329.94;5068612;28;42695;-78
2021/06/09 01:18:44;;;;;;;1.43;0.87;;;;;;;19.09;75.15;99324.81;5086068;28;40991;-76
2021/06/09 01:21:12;;;;;;;1.50;1.03;;;;;;;19.12;74.94;99325.41;5069429;28;39711;-81
2021/06/09 01:23:41;;;;;;;1.80;1.70;;;;;;;19.14;74.92;99317.22;5052066;28;40726;-78
2021/06/09 01:26:10;;;;;;;1.10;1.00;;;;;;;19.14;74.91;99317.22;5085362;28;41734;-79
2021/06/09 01:28:38;;;;;;;1.43;1.13;;;;;;;19.14;74.72;99322.59;5067581;28;41939;-81
2021/06/09 01:31:06;;;;;;;1.30;1.20;;;;;;;19.08;74.80;99313.25;5067592;28;39940;-80
2021/06/09 01:33:33;;;;;;;1.03;1.03;;;;;;;19.13;74.78;99326.25;5069961;28;41598;-76
2021/06/09 01:36:00;;;;;;;1.20;1.10;;;;;;;19.13;74.72;99323.56;5064433;28;43142;-79
2021/06/09 01:38:28;;;;;;;1.40;1.17;;;;;;;19.13;74.84;99327.09;5050314;28;41965;-77
2021/06/09 01:40:56;;;;;;;2.23;2.03;;;;;;;19.13;74.89;99324.44;5049859;28;40298;-76
2021/06/09 01:43:23;;;;;;;1.00;0.90;;;;;;;19.13;74.94;99323.56;5081452;28;41746;-81
2021/06/09 01:45:51;;;;;;;1.73;1.63;;;;;;;19.00;74.90;99305.88;5066468;28;43585;-79
2021/06/09 01:48:18;;;;;;;1.30;1.20;;;;;;;19.13;74.75;99326.25;5076190;28;41155;-75
2021/06/09 01:50:45;;;;;;;2.00;1.20;;;;;;;18.80;74.70;99281.81;5084137;28;40100;-75
2021/06/09 01:53:13;;;;;;;2.87;1.57;;;;;;;19.09;75.20;99324.81;5117801;28;42306;-77
2021/06/09 01:55:40;;;;;;;1.30;1.20;;;;;;;19.05;75.44;99326.06;5086438;28;43345;-80
2021/06/09 01:58:12;;;;;;;1.23;1.13;;;;;;;18.96;75.72;99317.88;5065990;28;41325;-79
2021/06/09 02:00:42;;;;;;;0.97;0.97;;;;;;;18.99;76.12;99335.56;5083745;28;40489;-78
2021/06/09 02:03:11;;;;;;;1.60;1.50;;;;;;;18.72;76.22;99295.91;5067375;28;40289;-79
2021/06/09 02:05:39;;;;;;;1.90;1.70;;;;;;;18.91;76.47;99333.56;5056397;28;44128;-79
2021/06/09 02:08:09;;;;;;;1.80;1.20;;;;;;;18.91;76.41;99332.72;5082016;28;42212;-79
2021/06/09 02:10:37;;;;;;;1.87;1.77;;;;;;;18.90;76.53;99334.53;5065876;28;40526;-81
2021/06/09 02:13:07;;;;;;;1.30;1.20;;;;;;;18.89;76.48;99323.94;5049033;28;42492;-81
2021/06/09 02:15:36;;;;;;;1.33;1.23;;;;;;;18.89;76.75;99330.16;5058757;28;42761;-85
2021/06/09 02:18:09;;;;;;;1.30;1.13;;;;;;;18.91;76.37;99328.19;5070556;28;42644;-81
2021/06/09 02:20:38;;;;;;;1.60;1.50;;;;;;;18.91;76.56;99336.25;5070429;28;39655;-78
2021/06/09 02:23:10;;;;;;;1.47;1.37;;;;;;;18.86;76.29;99330.44;5066973;28;42504;-83
2021/06/09 02:25:40;;;;;;;1.07;1.00;;;;;;;18.79;76.31;99315.03;5068072;28;42658;-80
2021/06/09 02:28:07;;;;;;;0.90;0.90;;;;;;;18.90;76.42;99325.66;5069052;28;42284;-80
2021/06/09 02:30:37;;;;;;;1.20;1.20;;;;;;;18.89;76.32;99330.16;5068003;28;39772;-77
2021/06/09 02:33:05;;;;;;;1.10;1.00;;;;;;;18.79;76.09;99315.84;5067414;28;42422;-81
2021/06/09 02:35:36;;;;;;;1.03;1.03;;;;;;;18.89;76.44;99327.47;5051477;28;41896;-80
2021/06/09 02:38:04;;;;;;;1.33;1.23;;;;;;;18.88;76.31;99317.72;5064628;28;42282;-81
2021/06/09 02:40:32;;;;;;;0.93;0.93;;;;;;;18.88;76.27;99323.09;5050144;28;40370;-79
2021/06/09 02:43:00;;;;;;;1.90;1.80;;;;;;;18.87;76.29;99321.41;5068652;28;41462;-79
2021/06/09 02:45:27;;;;;;;1.30;1.27;;;;;;;18.87;76.46;99326.75;5051434;28;44441;-78
2021/06/09 02:48:01;;;;;;;2.67;1.27;;;;;;;18.87;76.15;99326.75;5054879;28;42367;-79
2021/06/09 02:50:30;;;;;;;1.40;1.30;;;;;;;18.86;76.13;99325.06;5070412;28;41594;-82
2021/06/09 02:53:04;;;;;;;0.97;0.97;;;;;;;18.80;76.49;99314.84;5072297;28;41606;-83
2021/06/09 02:55:52;;;;;;;1.30;1.20;;;;;;;18.86;76.44;99322.38;5070654;28;42462;-81
2021/06/09 02:58:29;;;;;;;1.10;1.00;;;;;;;18.86;76.16;99325.06;5054343;28;41384;-81
2021/06/09 03:01:06;;;;;;;1.17;1.10;;;;;;;18.84;76.08;99321.66;5054182;28;39315;-82
2021/06/09 03:03:45;;;;;;;1.17;1.10;;;;;;;18.83;76.22;99329.84;5071463;28;41731;-81
2021/06/09 03:06:25;;;;;;;1.10;1.00;;;;;;;18.60;76.36;99291.63;5071205;28;41866;-82
2021/06/09 03:09:02;;;;;;;1.63;1.53;;;;;;;18.82;76.49;99323.63;5066997;28;42179;-81
2021/06/09 03:11:36;;;;;;;1.23;1.20;;;;;;;18.81;76.13;99324.59;5084972;28;39283;-82
2021/06/09 03:14:17;;;;;;;1.10;1.10;;;;;;;18.72;76.23;99308.47;5066356;28;40998;-82
2021/06/09 03:16:49;;;;;;;1.67;1.57;;;;;;;18.81;76.32;99327.28;5073399;28;41737;-84
2021/06/09 03:19:21;;;;;;;1.30;1.20;;;;;;;18.82;76.14;99323.63;5069589;28;42251;-82
2021/06/09 03:21:55;;;;;;;1.20;1.20;;;;;;;18.82;76.51;99323.63;5073085;28;40829;-81
2021/06/09 03:24:28;;;;;;;1.17;1.07;;;;;;;18.85;76.17;99318.00;5071089;28;42280;-80
2021/06/09 03:26:58;;;;;;;1.43;1.33;;;;;;;18.83;76.30;99316.41;5054504;28;42733;-77
2021/06/09 03:29:34;;;;;;;1.40;1.30;;;;;;;18.85;76.14;99323.34;5053647;28;41029;-82
2021/06/09 03:32:05;;;;;;;1.73;1.63;;;;;;;18.86;76.56;99322.38;5072003;28;39584;-79
2021/06/09 03:34:40;;;;;;;1.87;1.73;;;;;;;18.75;77.12;99310.91;5070928;28;41419;-81
2021/06/09 03:37:10;;;;;;;2.27;1.67;;;;;;;18.79;77.20;99321.22;5071451;28;42704;-80
2021/06/09 03:39:41;;;;;;;1.97;1.57;;;;;;;18.84;77.05;99328.84;5071294;28;41924;-78
2021/06/09 03:42:11;;;;;;;1.73;1.60;;;;;;;18.85;76.93;99334.09;5072092;28;41526;-79
2021/06/09 03:44:43;;;;;;;2.27;2.07;;;;;;;18.81;77.23;99327.28;5053593;28;41592;-81
2021/06/09 03:47:12;;;;;;;1.53;1.43;;;;;;;18.82;77.10;99333.50;5103409;28;43512;-81
2021/06/09 03:49:44;;;;;;;1.40;1.30;;;;;;;18.89;77.17;99335.53;5071376;28;42172;-81
2021/06/09 03:52:12;;;;;;;1.63;1.40;;;;;;;18.89;77.40;99335.53;5069214;28;39802;-82
2021/06/09 03:54:43;;;;;;;2.30;2.10;;;;;;;18.87;77.64;99342.88;5053577;28;41584;-78
2021/06/09 03:57:11;;;;;;;1.97;1.77;;;;;;;18.85;77.83;99333.25;5069191;28;41886;-80
2021/06/09 03:59:39;;;;;;;1.17;1.17;;;;;;;18.86;77.54;99335.78;5069918;28;42194;-80
2021/06/09 04:02:08;;;;;;;2.07;1.93;;;;;;;18.86;78.03;99334.94;5071185;28;39622;-79
2021/06/09 04:04:36;;;;;;;1.13;1.13;;;;;;;18.87;77.80;99337.50;5053183;28;40944;-82
2021/06/09 04:07:07;;;;;;;0.97;0.90;;;;;;;18.90;78.03;99337.22;5069364;28;42295;-81
2021/06/09 04:09:36;;;;;;;1.87;1.70;;;;;;;18.83;77.80;99324.47;5072047;28;42349;-81
2021/06/09 04:12:05;;;;;;;1.83;1.60;;;;;;;18.84;77.79;99320.81;5071439;28;39585;-79
2021/06/09 04:14:35;;;;;;;2.10;1.90;;;;;;;18.95;77.65;99334.97;5069491;28;42268;-79
2021/06/09 04:17:04;;;;;;;2.10;1.93;;;;;;;19.01;77.29;99339.81;5069848;28;42754;-78
2021/06/09 04:19:33;;;;;;;1.60;1.43;;;;;;;19.06;77.54;99338.53;5069696;28;42806;-81
2021/06/09 04:22:03;;;;;;;1.57;1.13;;;;;;;19.12;77.33;99341.53;5071407;28;40098;-81
2021/06/09 04:24:32;;;;;;;1.27;1.17;;;;;;;19.18;77.37;99338.25;5087184;28;40987;-81
2021/06/09 04:27:01;;;;;;;1.50;1.40;;;;;;;19.24;77.12;99334.19;5087003;28;42638;-79
2021/06/09 04:29:31;;;;;;;1.57;1.47;;;;;;;19.30;76.98;99336.31;5069203;28;42386;-81
2021/06/09 04:31:58;;;;;;;1.70;1.60;;;;;;;19.35;76.78;99328.69;5053774;28;40135;-82
2021/06/09 04:34:25;;;;;;;1.47;1.37;;;;;;;19.39;76.87;99332.81;5070400;28;42502;-80
2021/06/09 04:36:52;;;;;;;0.70;0.70;;;;;;;19.43;76.67;99339.56;5070241;28;43471;-78
2021/06/09 04:39:20;;;;;;;1.93;1.70;;;;;;;19.50;76.91;99340.75;5070278;28;42346;-80
2021/06/09 04:41:49;;;;;;;1.47;1.37;;;;;;;19.56;76.81;99339.31;5069952;28;38865;-82
2021/06/09 04:44:16;;;;;;;1.47;1.10;;;;;;;19.59;76.86;99339.91;5068592;28;41949;-78
2021/06/09 04:46:43;;;;;;;1.43;1.20;;;;;;;19.65;76.74;99342.03;5069361;28;42726;-78
2021/06/09 04:49:11;;;;;;;1.37;1.27;;;;;;;19.70;76.63;99344.28;5068335;28;42998;-80
2021/06/09 04:51:38;;;;;;;1.17;1.07;;;;;;;19.68;76.47;99335.50;5071157;28;40369;-80
2021/06/09 04:54:07;;;;;;;2.00;1.70;;;;;;;19.84;76.54;99340.31;5069871;28;41378;-80
2021/06/09 04:56:37;;;;;;;2.27;2.03;;;;;;;19.91;76.27;99334.22;5049999;28;44921;-78
2021/06/09 04:59:08;;;;;;;2.60;2.27;;;;;;;19.92;76.10;99321.63;5066973;28;42873;-80
2021/06/09 05:01:37;;;;;;;1.50;1.40;;;;;;;20.11;75.82;99334.22;5065501;28;40054;-79
2021/06/09 05:04:05;;;;;;;1.60;1.50;;;;;;;20.16;75.70;99326.53;5050230;28;41665;-83
2021/06/09 05:06:32;;;;;;;1.27;1.17;;;;;;;20.26;75.47;99333.63;5034454;28;41591;-80
2021/06/09 05:09:00;;;;;;;2.03;1.83;;;;;;;20.37;75.55;99328.09;5051764;28;41331;-78
2021/06/09 05:11:31;;;;;;;2.07;1.87;;;;;;;20.48;75.43;99337.81;5051688;28;38776;-79
2021/06/09 05:14:02;;;;;;;1.97;1.77;;;;;;;20.58;75.30;99335.09;5069157;28;41628;-82
2021/06/09 05:16:34;;;;;;;1.50;1.40;;;;;;;20.66;75.09;99341.41;5070565;28;43511;-81
2021/06/09 05:19:03;;;;;;;1.23;1.03;;;;;;;20.74;74.63;99333.47;5085006;28;41301;-80
2021/06/09 05:21:34;;;;;;;2.07;1.87;;;;;;;20.84;74.38;99337.94;5069026;28;40731;-79
2021/06/09 05:24:03;;;;;;;1.97;1.80;;;;;;;20.93;74.52;99342.44;5051738;28;40647;-82
2021/06/09 05:26:31;;;;;;;1.90;1.63;;;;;;;21.01;73.82;99339.88;5052817;28;42041;-80
2021/06/09 05:29:02;;;;;;;2.43;1.80;;;;;;;21.11;73.90;99341.50;5068550;28;42297;-79
2021/06/09 05:31:32;;;;;;;2.23;1.63;;;;;;;21.22;73.32;99347.69;5068546;28;41910;-80
2021/06/09 05:34:00;;;;;;;2.07;1.77;;;;;;;21.30;73.03;99339.69;5068747;28;40722;-79
2021/06/09 05:36:29;;;;;;;2.30;2.13;;;;;;;21.28;72.11;99330.91;5051807;28;41734;-81
2021/06/09 05:38:57;;;;;;;2.90;2.60;;;;;;;21.42;72.07;99349.25;5069931;28;42944;-82
2021/06/09 05:41:26;;;;;;;1.77;1.63;;;;;;;21.47;72.14;99341.56;5068317;28;40589;-82
2021/06/09 05:43:53;;;;;;;1.73;1.63;;;;;;;21.57;72.11;99350.44;5085838;28;40399;-79
2021/06/09 05:46:20;;;;;;;2.50;2.30;;;;;;;21.68;72.19;99355.59;5050912;28;42251;-82
2021/06/09 05:48:49;;;;;;;1.80;1.70;;;;;;;21.80;72.00;99348.97;5052016;28;42706;-83
2021/06/09 05:51:18;;;;;;;1.80;1.70;;;;;;;21.92;71.78;99351.41;5050863;28;39856;-81
2021/06/09 05:53:52;;;;;;;1.80;1.70;;;;;;;21.98;71.34;99350.81;5067292;28;42381;-79
2021/06/09 05:56:19;;;;;;;1.90;1.80;;;;;;;22.04;71.38;99344.78;5068149;28;43638;-81
2021/06/09 05:58:47;;;;;;;1.93;1.73;;;;;;;22.12;71.16;99347.56;5068270;28;43027;-81
2021/06/09 06:01:14;;;;;;;2.20;2.00;;;;;;;22.16;70.82;99349.78;5068403;28;40678;-82
2021/06/09 06:03:44;;;;;;;2.30;2.10;;;;;;;22.16;70.79;99344.38;5069035;28;41705;-78
2021/06/09 06:06:14;;;;;;;3.07;2.77;;;;;;;22.21;70.85;99346.63;5067082;28;43269;-80
2021/06/09 06:08:43;;;;;;;3.17;2.87;;;;;;;22.31;70.68;99349.22;5069035;28;42214;-83
2021/06/09 06:11:12;;;;;;;2.73;2.03;;;;;;;22.52;70.52;99349.69;5084680;28;40432;-80
2021/06/09 06:13:41;;;;;;;2.27;2.17;;;;;;;22.75;70.08;99355.41;5062239;28;42396;-83
2021/06/09 06:16:12;;;;;;;3.37;3.07;;;;;;;22.89;69.81;99352.09;5064770;28;42644;-79
2021/06/09 06:18:41;;;;;;;1.73;1.60;;;;;;;23.08;68.86;99357.25;5101127;28;42275;-79
2021/06/09 06:21:11;;;;;;;2.70;2.27;;;;;;;23.21;68.02;99360.34;5066538;28;39692;-80
2021/06/09 06:23:40;;;;;;;2.07;1.87;;;;;;;23.39;68.01;99353.97;5063931;28;41840;-78
2021/06/09 06:26:08;;;;;;;2.40;2.20;;;;;;;23.37;67.00;99345.19;5101441;28;43186;-80
2021/06/09 06:28:38;;;;;;;2.77;2.27;;;;;;;23.59;66.91;99363.50;5068740;28;42072;-91
2021/06/09 06:31:11;;;;;;;2.27;2.07;;;;;;;23.68;67.16;99357.09;5069173;28;39538;-82
2021/06/09 06:33:40;;;;;;;2.13;1.93;;;;;;;23.78;65.84;99349.66;5069169;28;42086;-85
2021/06/09 06:36:08;;;;;;;2.33;2.13;;;;;;;24.06;64.55;99382.66;5069245;28;42802;-84
2021/06/09 06:38:37;;;;;;;2.13;1.93;;;;;;;24.34;63.84;99370.50;5068290;28;41951;-80
2021/06/09 06:41:08;;;;;;;2.30;2.03;;;;;;;24.63;62.47;99363.66;5085241;28;39373;-87
2021/06/09 06:43:37;;;;;;;1.90;1.80;;;;;;;24.82;62.69;99367.84;5068832;28;41550;-82
2021/06/09 06:46:04;;;;;;;1.77;1.67;;;;;;;24.69;62.59;99328.63;5047157;28;41806;-89
2021/06/09 06:48:34;;;;;;;2.00;1.80;;;;;;;25.08;62.25;99370.34;5047215;28;42050;-80
2021/06/09 06:51:02;;;;;;;1.73;1.60;;;;;;;25.10;61.56;99369.13;5048166;28;39614;-88
2021/06/09 06:53:30;;;;;;;2.40;2.00;;;;;;;25.17;60.48;99371.97;5033809;28;41378;-79
2021/06/09 06:55:58;;;;;;;1.93;1.30;;;;;;;25.19;59.68;99370.78;5085327;28;41576;-82
2021/06/09 06:58:30;;;;;;;1.50;1.40;;;;;;;24.97;59.19;99360.72;5068301;28;42663;-82
2021/06/09 07:00:58;;;;;;;2.03;1.70;;;;;;;24.93;60.49;99368.34;5051542;28;40029;-83
2021/06/09 07:03:27;;;;;;;1.73;1.40;;;;;;;24.82;60.47;99366.00;5067965;28;42458;-84
2021/06/09 07:05:56;;;;;;;1.97;1.57;;;;;;;24.75;60.88;99361.44;5048192;28;42614;-90
2021/06/09 07:08:24;;;;;;;3.33;2.27;;;;;;;24.66;60.85;99361.47;5082196;28;41354;-82
2021/06/09 07:10:51;;;;;;;2.43;2.00;;;;;;;24.44;60.09;99323.44;5052125;28;40142;-84
2021/06/09 07:13:20;;;;;;;1.43;1.33;;;;;;;24.53;61.08;99344.06;5053742;28;41698;-83
2021/06/09 07:15:53;;;;;;;1.77;1.63;;;;;;;24.76;59.56;99355.84;5052543;28;42084;-86
2021/06/09 07:18:24;;;;;;;1.57;1.43;;;;;;;24.99;57.72;99361.38;5050734;28;41313;-86
2021/06/09 07:20:51;;;;;;;1.77;1.67;;;;;;;25.35;58.55;99362.56;5051808;28;42065;-87
2021/06/09 07:23:18;;;;;;;2.03;1.90;;;;;;;25.83;58.09;99362.47;5084334;28;41046;-90
2021/06/09 07:25:46;;;;;;;1.80;1.67;;;;;;;26.32;56.85;99377.38;5069607;28;41621;-81
2021/06/09 07:28:15;;;;;;;3.97;1.77;;;;;;;27.23;53.33;99395.22;5069522;28;42363;-83
2021/06/09 07:30:45;;;;;;;1.77;1.67;;;;;;;28.29;51.82;99396.47;5071101;28;40716;-86
2021/06/09 07:33:14;;;;;;;1.43;1.33;;;;;;;29.18;48.70;99405.69;5069956;28;41893;-80
2021/06/09 07:35:42;;;;;;;1.50;1.40;;;;;;;29.83;46.48;99420.69;5071854;28;42813;-83
2021/06/09 07:38:15;;;;;;;3.80;2.20;;;;;;;30.39;44.80;99425.84;5070702;28;41470;-84
2021/06/09 07:40:44;;;;;;;2.10;1.90;;;;;;;30.99;42.38;99420.16;5071938;28;39744;-80
2021/06/09 07:43:15;;;;;;;2.83;2.40;;;;;;;32.32;40.72;99448.69;5103143;28;41433;-81
2021/06/09 07:45:43;;;;;;;1.97;1.87;;;;;;;33.56;38.41;99461.50;5070366;28;43485;-81
2021/06/09 07:48:12;;;;;;;2.07;1.90;;;;;;;34.49;36.04;99464.69;5072382;28;42024;-87
2021/06/09 07:50:45;;;;;;;2.40;2.20;;;;;;;35.08;34.65;99446.34;5071896;28;41120;-80
2021/06/09 07:53:13;;;;;;;1.87;1.70;;;;;;;36.03;34.18;99478.16;5072553;28;41678;-82
2021/06/09 07:55:43;;;;;;;2.00;1.90;;;;;;;36.60;32.30;99490.84;5070935;28;42499;-88
2021/06/09 07:58:16;;;;;;;2.37;2.17;;;;;;;36.67;32.57;99477.72;5088356;28;41286;-82
2021/06/09 08:00:43;;;;;;;1.63;1.53;;;;;;;35.88;34.00;99465.75;5052809;28;40305;-82
2021/06/09 08:03:11;;;;;;;2.00;1.90;;;;;;;34.95;36.48;99457.59;5086760;28;40745;-82
2021/06/09 08:05:39;;;;;;;3.60;3.30;;;;;;;34.42;36.75;99450.19;5070744;28;43411;-80
2021/06/09 08:08:12;;;;;;;2.80;2.60;;;;;;;34.70;37.87;99444.03;5069130;28;41938;-81
2021/06/09 08:10:40;;;;;;;2.00;1.90;;;;;;;35.27;34.12;99447.06;5052081;28;39799;-88
2021/06/09 08:13:10;;;;;;;1.87;1.77;;;;;;;36.00;33.05;99477.56;5052292;28;40664;-85
2021/06/09 08:15:38;;;;;;;1.77;1.67;;;;;;;36.98;33.00;99465.25;5070790;28;42807;-88
2021/06/09 08:18:06;;;;;;;2.37;2.17;;;;;;;38.09;30.16;99499.16;5069017;28;41994;-87
2021/06/09 08:20:35;;;;;;;2.38;2.17;;;;;;;39.03;28.76;99493.19;5053027;28;39925;-87
2021/06/09 08:23:02;;;;;;;1.85;1.75;;;;;;;39.65;27.28;99516.59;5053238;28;41181;-85
2021/06/09 08:25:31;;;;;;;2.15;2.05;;;;;;;39.78;26.14;99511.41;5087132;28;42721;-85
2021/06/09 08:27:58;;;;;;;1.65;1.55;;;;;;;39.36;26.76;99494.78;5071554;28;42027;-83
2021/06/09 08:30:26;;;;;;;2.10;1.90;;;;;;;38.80;27.93;99497.16;5064795;28;40049;-84
2021/06/09 08:32:53;;;;;;;1.80;1.70;;;;;;;38.24;27.68;99503.22;5053837;28;41126;-83
2021/06/09 08:35:23;;;;;;;2.00;1.90;;;;;;;37.65;28.86;99484.53;5085717;28;43106;-87
2021/06/09 08:37:50;;;;;;;2.17;2.07;;;;;;;37.28;29.73;99491.72;5053020;28;41571;-84
2021/06/09 08:40:17;;;;;;;2.17;1.93;;;;;;;36.86;29.99;99486.59;5070660;28;40653;-83
2021/06/09 08:42:47;;;;;;;1.67;1.57;;;;;;;36.60;31.05;99476.19;5052856;28;41643;-86
2021/06/09 08:45:15;;;;;;;2.60;2.40;;;;;;;37.09;29.65;99485.63;5052216;28;41843;-82
2021/06/09 08:47:42;;;;;;;2.70;2.50;;;;;;;37.92;28.14;99495.63;5069162;28;42637;-78
2021/06/09 08:50:12;;;;;;;2.10;2.00;;;;;;;38.82;28.67;99494.13;5069780;28;39630;-83
2021/06/09 08:52:45;;;;;;;2.10;1.93;;;;;;;39.56;26.78;99504.38;5070088;28;41638;-86
2021/06/09 08:55:12;;;;;;;2.10;2.00;;;;;;;39.87;27.27;99497.03;5068834;28;43692;-83
2021/06/09 08:57:40;;;;;;;2.33;2.22;;;;;;;40.11;25.97;99501.84;5051904;28;42199;-82
2021/06/09 09:00:11;;;;;;;1.97;1.87;;;;;;;40.37;25.93;99499.16;5070348;28;39703;-78
2021/06/09 09:02:39;;;;;;;2.53;2.33;;;;;;;40.49;25.45;99502.50;5069465;28;41715;-82
2021/06/09 09:05:08;;;;;;;2.43;2.23;;;;;;;40.87;26.88;99504.78;5068394;28;43527;-88
2021/06/09 09:07:35;;;;;;;2.00;1.90;;;;;;;41.01;25.85;99518.09;5070080;28;42876;-83
2021/06/09 09:10:05;;;;;;;2.50;2.30;;;;;;;41.32;24.84;99518.91;5067965;28;40300;-87
2021/06/09 09:12:34;;;;;;;2.37;2.17;;;;;;;41.60;25.38;99502.47;5070680;28;42483;-85
2021/06/09 09:15:02;;;;;;;2.10;2.00;;;;;;;41.79;24.21;99519.34;5069428;28;43501;-84
2021/06/09 09:17:31;;;;;;;2.65;2.45;;;;;;;42.40;23.31;99527.47;5066639;28;41245;-84
2021/06/09 09:20:05;;;;;;;2.78;2.58;;;;;;;42.86;23.10;99519.63;5066167;28;40430;-88
2021/06/09 09:22:35;;;;;;;2.00;1.88;;;;;;;43.20;23.18;99518.78;5054735;28;41449;-81
2021/06/09 09:25:16;;;;;;;2.03;1.83;;;;;;;42.89;22.92;99479.22;5067869;28;42843;-90
2021/06/09 09:27:59;;;;;;;2.30;2.20;;;;;;;42.99;23.07;99505.03;5068973;28;42678;-88
2021/06/09 09:30:28;;;;;;;1.85;1.70;;;;;;;43.12;23.37;99497.09;5051250;28;40204;-86
2021/06/09 09:33:04;;;;;;;2.08;1.98;;;;;;;42.94;23.08;99490.28;5068431;28;41283;-84
2021/06/09 09:35:34;;;;;;;2.30;2.20;;;;;;;42.97;23.44;99498.91;5053326;28;43385;-83
2021/06/09 09:38:16;;;;;;;2.45;2.25;;;;;;;42.75;23.43;99498.53;5072023;28;42737;-80
2021/06/09 09:41:01;;;;;;;2.17;2.07;;;;;;;41.07;24.99;99490.00;5052364;28;39362;-83
2021/06/09 09:43:50;;;;;;;2.60;2.40;;;;;;;40.08;27.20;99468.25;5090528;28;40785;-82
2021/06/09 09:46:18;;;;;;;2.60;2.40;;;;;;;39.96;27.11;99462.94;5052939;28;42045;-82
2021/06/09 09:49:14;;;;;;;3.13;2.90;;;;;;;40.13;26.62;99471.88;5085755;28;42001;-89
2021/06/09 09:51:59;;;;;;;2.90;2.70;;;;;;;39.63;26.10;99480.00;5054969;28;40029;-80
2021/06/09 09:54:28;;;;;;;2.70;2.50;;;;;;;39.57;26.86;99462.47;5090689;28;42460;-87
2021/06/09 09:56:56;;;;;;;3.47;3.23;;;;;;;39.00;26.91;99460.47;5069368;28;44705;-80
2021/06/09 09:59:25;;;;;;;2.70;2.50;;;;;;;39.17;26.80;99440.91;5068995;28;42938;-82
2021/06/09 10:01:54;;;;;;;2.13;2.03;;;;;;;38.23;28.17;99446.19;5085593;28;39521;-89
2021/06/09 10:04:25;;;;;;;2.83;2.63;;;;;;;36.84;29.69;99421.72;5051664;28;40324;-80
2021/06/09 10:06:53;;;;;;;2.70;2.50;;;;;;;36.20;31.29;99426.66;5068693;28;41947;-80
2021/06/09 10:09:22;;;;;;;3.87;3.57;;;;;;;36.43;31.33;99426.53;5068792;28;42220;-80
2021/06/09 10:11:51;;;;;;;3.43;3.13;;;;;;;36.83;31.35;99417.28;5069296;28;39890;-84
2021/06/09 10:14:24;;;;;;;2.77;2.53;;;;;;;36.75;30.92;99437.00;5068240;28;41650;-81
2021/06/09 10:17:00;;;;;;;2.30;2.10;;;;;;;36.63;31.97;99426.84;5048382;28;41786;-81
2021/06/09 10:19:34;;;;;;;2.50;2.37;;;;;;;36.54;31.71;99422.84;5068289;28;43331;-82
2021/06/09 10:22:05;;;;;;;2.90;2.70;;;;;;;36.82;31.44;99434.94;5098151;28;42331;-80
2021/06/09 10:24:43;;;;;;;2.83;2.63;;;;;;;36.86;31.70;99416.75;5096839;28;41732;-81
2021/06/09 10:27:10;;;;;;;2.40;2.30;;;;;;;36.23;31.56;99415.97;5063291;28;42731;-81
2021/06/09 10:29:38;;;;;;;3.03;2.77;;;;;;;35.82;32.99;99413.53;5048198;28;41158;-86
2021/06/09 10:32:07;;;;;;;2.40;2.20;;;;;;;35.38;33.63;99413.13;5047496;28;38968;-86
2021/06/09 10:34:38;;;;;;;2.90;2.70;;;;;;;35.27;34.80;99401.06;5063723;28;41177;-85
2021/06/09 10:37:08;;;;;;;3.03;2.73;;;;;;;35.08;33.77;99385.78;5063900;28;42400;-86
2021/06/09 10:39:39;;;;;;;2.90;2.70;;;;;;;35.35;34.71;99396.28;5047112;28;41575;-85
2021/06/09 10:42:08;;;;;;;2.77;2.03;;;;;;;35.79;32.16;99419.53;5064660;28;40329;-85
2021/06/09 10:44:37;;;;;;;2.63;2.43;;;;;;;35.91;32.88;99415.63;5059161;28;41592;-88
2021/06/09 10:47:06;;;;;;;2.73;2.53;;;;;;;35.93;32.95;99412.63;5063013;28;42801;-88
2021/06/09 10:49:38;;;;;;;2.73;2.53;;;;;;;35.90;33.57;99405.69;5054274;28;41222;-87
2021/06/09 10:52:06;;;;;;;3.37;3.07;;;;;;;35.78;32.37;99404.91;5047539;28;39255;-86
2021/06/09 10:54:33;;;;;;;2.87;2.67;;;;;;;35.76;32.20;99409.81;5047640;28;40737;-88
2021/06/09 10:57:00;;;;;;;4.23;2.93;;;;;;;35.10;32.32;99402.06;5062022;28;43117;-85
2021/06/09 10:59:31;;;;;;;3.53;2.83;;;;;;;34.30;32.87;99399.84;5071709;28;41274;-88
2021/06/09 11:02:01;;;;;;;2.77;2.57;;;;;;;33.82;34.09;99408.16;5082801;28;39429;-80
2021/06/09 11:04:36;;;;;;;3.10;2.90;;;;;;;33.44;35.38;99389.19;5084781;28;40924;-80
2021/06/09 11:07:06;;;;;;;2.27;2.17;;;;;;;33.18;36.12;99382.06;5083434;28;42260;-81
2021/06/09 11:09:33;;;;;;;2.50;2.37;;;;;;;32.98;36.89;99373.25;5050507;28;42542;-82
2021/06/09 11:12:19;;;;;;;2.30;2.10;;;;;;;32.85;37.22;99367.88;5069068;28;40679;-82
2021/06/09 11:14:48;;;;;;;2.87;2.63;;;;;;;32.65;36.97;99373.53;5066924;28;41597;-80
2021/06/09 11:17:32;;;;;;;2.73;2.30;;;;;;;32.45;37.22;99369.09;5050740;28;42119;-79
2021/06/09 11:20:12;;;;;;;2.57;2.40;;;;;;;32.22;37.15;99368.03;5101817;28;41254;-82
2021/06/09 11:22:42;;;;;;;3.00;2.80;;;;;;;32.11;38.04;99358.59;5072950;28;39227;-80
2021/06/09 11:25:21;;;;;;;2.97;2.67;;;;;;;31.98;38.85;99334.88;5080802;28;41415;-80
2021/06/09 11:28:00;;;;;;;2.37;2.17;;;;;;;31.91;38.25;99336.78;5081966;28;41644;-80
2021/06/09 11:30:43;;;;;;;2.20;2.00;;;;;;;31.89;38.58;99346.31;5068822;28;42389;-79
2021/06/09 11:33:27;;;;;;;2.27;2.10;;;;;;;31.88;39.41;99339.16;5070191;28;39763;-81
2021/06/09 11:35:58;;;;;;;2.37;2.27;;;;;;;31.78;39.26;99335.00;5068371;28;41512;-81
2021/06/09 11:38:27;;;;;;;2.40;2.20;;;;;;;31.68;38.46;99329.16;5068072;28;42809;-81
2021/06/09 11:40:59;;;;;;;2.00;1.90;;;;;;;31.67;38.89;99319.25;5069747;28;42774;-80
2021/06/09 11:43:28;;;;;;;2.30;2.10;;;;;;;31.66;39.26;99314.84;5082754;28;40248;-81
2021/06/09 11:45:59;;;;;;;2.70;2.50;;;;;;;31.70;39.91;99305.13;5066825;28;41671;-79
2021/06/09 11:48:27;;;;;;;2.10;2.00;;;;;;;31.70;39.53;99305.13;5099053;28;42534;-83